Time;durP1;ratioP1;P1;durP2;ratioP2;P2;SDS_P1;SDS_P2;PMS_P1;PMS_P2;Temp;Humidity;BMP_temperature;BMP_pressure;BME280_temperature;BME280_humidity;BME280_pressure;Samples;Min_cycle;Max_cycle;Signal;HPM_P1;HPM_P2
2022/05/13 00:01:51;;;;;;;0.63;0.50;;;15.20;47.60;;;;;;5030721;28;20135;-78
2022/05/13 00:04:16;;;;;;;2.10;0.68;;;15.10;47.60;;;;;;5065984;28;20520;-78
2022/05/13 00:06:42;;;;;;;2.33;0.45;;;15.10;47.60;;;;;;5032924;28;20025;-79
2022/05/13 00:09:08;;;;;;;2.10;0.50;;;15.10;47.90;;;;;;5046216;28;20032;-78
2022/05/13 00:11:34;;;;;;;2.10;0.50;;;15.00;47.80;;;;;;5057612;28;20021;-78
2022/05/13 00:14:00;;;;;;;1.42;0.50;;;15.00;47.90;;;;;;5042081;28;20308;-79
2022/05/13 00:16:25;;;;;;;1.03;0.40;;;15.00;48.00;;;;;;5033683;28;20040;-78
2022/05/13 00:18:51;;;;;;;1.10;0.68;;;15.00;48.20;;;;;;5046025;28;20040;-78
2022/05/13 00:21:17;;;;;;;1.55;0.50;;;14.90;48.20;;;;;;5034921;28;20044;-78
2022/05/13 00:23:42;;;;;;;1.30;0.50;;;14.90;48.10;;;;;;5065231;28;20107;-78
2022/05/13 00:26:08;;;;;;;1.13;0.50;;;14.90;48.20;;;;;;5059833;28;20071;-78
2022/05/13 00:28:34;;;;;;;0.98;0.50;;;14.80;48.20;;;;;;5035221;28;20043;-78
2022/05/13 00:31:03;;;;;;;0.93;0.50;;;14.80;48.20;;;;;;5068956;28;20716;-78
2022/05/13 00:33:29;;;;;;;1.77;0.60;;;14.70;48.50;;;;;;5025977;28;20401;-78
2022/05/13 00:35:55;;;;;;;2.45;0.55;;;14.70;48.60;;;;;;5041432;28;20133;-77
2022/05/13 00:38:20;;;;;;;1.10;0.50;;;14.70;48.80;;;;;;5032088;28;20047;-78
2022/05/13 00:40:46;;;;;;;0.88;0.50;;;14.60;49.00;;;;;;5061724;28;20349;-79
2022/05/13 00:43:15;;;;;;;1.43;0.53;;;14.60;49.00;;;;;;5049425;28;20091;-78
2022/05/13 00:45:40;;;;;;;1.33;0.47;;;14.50;49.30;;;;;;5029708;28;20363;-78
2022/05/13 00:48:07;;;;;;;1.73;0.47;;;14.50;49.10;;;;;;5046839;28;20045;-78
2022/05/13 00:50:37;;;;;;;2.17;0.57;;;14.50;49.40;;;;;;5039552;28;20053;-78
2022/05/13 00:53:03;;;;;;;2.63;0.57;;;14.40;49.70;;;;;;5048326;28;20036;-77
2022/05/13 00:55:38;;;;;;;1.70;0.57;;;14.40;49.70;;;;;;5044612;28;20309;-78
2022/05/13 00:58:08;;;;;;;1.42;0.50;;;14.30;50.40;;;;;;5033721;28;20037;-78
2022/05/13 01:00:35;;;;;;;1.73;0.60;;;14.30;50.30;;;;;;5039980;28;20700;-78
2022/05/13 01:03:01;;;;;;;1.83;0.80;;;14.20;50.30;;;;;;5040185;28;20178;-79
2022/05/13 01:05:28;;;;;;;0.90;0.50;;;14.20;50.20;;;;;;5051525;28;20225;-78
2022/05/13 01:07:53;;;;;;;1.20;0.47;;;14.20;50.10;;;;;;5074521;28;20043;-78
2022/05/13 01:10:23;;;;;;;1.00;0.52;;;14.10;50.30;;;;;;5043359;28;20036;-79
2022/05/13 01:12:55;;;;;;;1.73;0.50;;;14.10;51.10;;;;;;5068906;28;20026;-79
2022/05/13 01:15:31;;;;;;;2.00;0.70;;;14.00;50.90;;;;;;5042442;28;20049;-78
2022/05/13 01:18:05;;;;;;;2.05;0.60;;;14.00;51.20;;;;;;5065419;28;20037;-79
2022/05/13 01:20:58;;;;;;;2.03;0.50;;;14.00;50.80;;;;;;5073272;28;20039;-79
2022/05/13 01:23:25;;;;;;;2.65;0.50;;;14.00;52.50;;;;;;5025677;28;20043;-77
2022/05/13 01:25:54;;;;;;;1.33;0.53;;;13.90;51.10;;;;;;5073106;28;20028;-79
2022/05/13 01:28:29;;;;;;;2.40;0.70;;;13.90;51.70;;;;;;5020916;28;20070;-77
2022/05/13 01:30:58;;;;;;;1.67;0.50;;;13.90;52.20;;;;;;5064642;28;20038;-78
2022/05/13 01:33:25;;;;;;;1.17;0.50;;;13.80;52.10;;;;;;5066016;28;20028;-78
2022/05/13 01:35:55;;;;;;;2.03;0.55;;;13.80;52.20;;;;;;5045568;28;20025;-78
2022/05/13 01:38:25;;;;;;;1.47;0.50;;;13.80;52.30;;;;;;5048519;28;20318;-78
2022/05/13 01:40:51;;;;;;;1.65;0.60;;;13.80;52.70;;;;;;5049832;28;20028;-78
2022/05/13 01:43:18;;;;;;;1.20;0.60;;;13.80;52.40;;;;;;5070419;28;20102;-79
2022/05/13 01:45:44;;;;;;;2.65;0.70;;;13.80;52.80;;;;;;5045382;28;20800;-78
2022/05/13 01:48:10;;;;;;;1.77;0.50;;;13.80;52.70;;;;;;5042069;28;20029;-79
2022/05/13 01:50:37;;;;;;;1.27;0.60;;;13.80;52.80;;;;;;5039196;28;20265;-79
2022/05/13 01:53:03;;;;;;;2.70;0.80;;;13.70;52.70;;;;;;5048630;28;20020;-78
2022/05/13 01:55:29;;;;;;;1.63;0.60;;;13.70;53.50;;;;;;5047957;28;20532;-77
2022/05/13 01:57:55;;;;;;;3.00;0.70;;;13.70;53.40;;;;;;5076009;28;20111;-78
2022/05/13 02:00:22;;;;;;;2.17;0.77;;;13.70;53.30;;;;;;5042075;28;20546;-78
2022/05/13 02:05:33;;;;;;;3.35;0.73;;;13.70;54.00;;;;;;5043364;28;20157;-78
2022/05/13 02:07:58;;;;;;;0.77;0.60;;;13.70;53.50;;;;;;5069249;28;20040;-79
2022/05/13 02:10:24;;;;;;;0.93;0.60;;;13.70;54.20;;;;;;5032715;28;20077;-77
2022/05/13 02:12:50;;;;;;;2.50;0.73;;;13.70;53.70;;;;;;5068922;28;20027;-79
2022/05/13 02:15:16;;;;;;;2.60;0.98;;;13.70;53.70;;;;;;5056566;28;20075;-79
2022/05/13 02:17:42;;;;;;;0.90;0.50;;;13.70;53.80;;;;;;5042638;28;21210;-79
2022/05/13 02:20:08;;;;;;;2.72;0.80;;;13.70;54.10;;;;;;5039533;28;20074;-78
2022/05/13 02:22:34;;;;;;;3.38;0.80;;;13.70;54.60;;;;;;5027955;28;20495;-78
2022/05/13 02:25:01;;;;;;;1.70;0.70;;;13.70;54.10;;;;;;5046401;28;20475;-78
2022/05/13 02:27:26;;;;;;;2.77;0.70;;;13.70;54.60;;;;;;5046501;28;20128;-79
2022/05/13 02:29:52;;;;;;;1.55;0.70;;;13.70;54.30;;;;;;5035860;28;20444;-79
2022/05/13 02:32:18;;;;;;;2.10;0.80;;;13.70;54.30;;;;;;5049173;28;20059;-78
2022/05/13 02:34:43;;;;;;;1.43;0.70;;;13.70;54.20;;;;;;5053782;28;20291;-78
2022/05/13 02:37:09;;;;;;;2.42;0.90;;;13.70;54.20;;;;;;5055708;28;20362;-78
2022/05/13 02:39:35;;;;;;;1.53;0.90;;;13.70;54.20;;;;;;5037741;28;20040;-78
2022/05/13 02:42:01;;;;;;;2.40;0.60;;;13.60;54.20;;;;;;5046587;28;20037;-79
2022/05/13 02:44:26;;;;;;;2.37;0.77;;;13.60;54.10;;;;;;5047251;28;20044;-78
2022/05/13 02:46:52;;;;;;;1.02;0.52;;;13.50;54.20;;;;;;5071201;28;20036;-79
2022/05/13 02:49:18;;;;;;;3.63;0.70;;;13.50;54.30;;;;;;5035737;28;20039;-78
2022/05/13 02:51:46;;;;;;;2.40;0.80;;;13.50;54.40;;;;;;5063936;28;20037;-78
2022/05/13 02:54:12;;;;;;;2.90;0.77;;;13.50;54.80;;;;;;5056950;28;20120;-79
2022/05/13 02:56:38;;;;;;;2.10;0.87;;;13.40;54.60;;;;;;5032546;28;20100;-78
2022/05/13 02:59:05;;;;;;;1.98;0.90;;;13.40;54.70;;;;;;5058799;28;20424;-79
2022/05/13 03:01:32;;;;;;;1.52;0.70;;;13.30;55.00;;;;;;5059025;28;21282;-79
2022/05/13 03:03:58;;;;;;;2.83;0.73;;;13.30;54.90;;;;;;5071390;28;20093;-78
2022/05/13 03:06:24;;;;;;;3.13;0.80;;;13.20;55.00;;;;;;5045064;28;20032;-79
2022/05/13 03:08:51;;;;;;;2.03;0.77;;;13.20;55.10;;;;;;5078999;28;20044;-81
2022/05/13 03:11:18;;;;;;;2.70;0.70;;;13.20;55.20;;;;;;5039636;28;20056;-82
2022/05/13 03:13:44;;;;;;;2.28;0.80;;;13.20;55.20;;;;;;5038725;28;20671;-81
2022/05/13 03:16:15;;;;;;;1.98;1.00;;;13.10;55.10;;;;;;5063639;28;20040;-81
2022/05/13 03:18:40;;;;;;;1.67;0.70;;;13.10;55.50;;;;;;5059390;28;20041;-80
2022/05/13 03:21:08;;;;;;;2.23;0.67;;;13.10;55.70;;;;;;5065538;28;20061;-82
2022/05/13 03:23:33;;;;;;;2.53;0.77;;;13.10;56.00;;;;;;5064289;28;20247;-81
2022/05/13 03:25:59;;;;;;;3.10;0.70;;;13.00;55.70;;;;;;5050231;28;20044;-81
2022/05/13 03:28:26;;;;;;;1.35;0.70;;;13.00;56.00;;;;;;5048854;28;20052;-78
2022/05/13 03:30:52;;;;;;;1.75;0.70;;;13.00;55.80;;;;;;5070136;28;20039;-78
2022/05/13 03:33:19;;;;;;;2.30;0.80;;;13.00;56.00;;;;;;5033881;28;20033;-78
2022/05/13 03:35:44;;;;;;;2.42;0.70;;;13.00;56.10;;;;;;5074362;28;20033;-78
2022/05/13 03:38:10;;;;;;;1.20;0.60;;;13.00;56.30;;;;;;5057497;28;20051;-79
2022/05/13 03:40:36;;;;;;;1.80;0.60;;;13.10;56.40;;;;;;5042666;28;21079;-78
2022/05/13 03:43:05;;;;;;;2.60;0.80;;;13.10;56.40;;;;;;5063559;28;20029;-78
2022/05/13 03:45:32;;;;;;;2.38;0.80;;;13.10;57.50;;;;;;5042342;28;20086;-77
2022/05/13 03:48:02;;;;;;;1.95;0.60;;;13.10;56.60;;;;;;5046965;28;20055;-78
2022/05/13 03:50:27;;;;;;;2.80;0.90;;;13.10;57.10;;;;;;5056511;28;20526;-79
2022/05/13 03:52:53;;;;;;;4.70;1.00;;;13.10;57.20;;;;;;5044923;28;20392;-77
2022/05/13 03:55:20;;;;;;;3.67;0.90;;;13.10;57.10;;;;;;5054502;28;20028;-79
2022/05/13 03:57:45;;;;;;;2.33;0.80;;;13.00;57.30;;;;;;5065535;28;20039;-79
2022/05/13 04:00:13;;;;;;;1.23;0.50;;;13.00;57.20;;;;;;5039630;28;20040;-78
2022/05/13 04:02:38;;;;;;;2.03;0.75;;;13.00;57.30;;;;;;5027581;28;20183;-78
2022/05/13 04:10:37;;;;;;;1.65;0.68;;;13.10;57.50;;;;;;5064276;28;20144;-78
2022/05/13 04:18:35;;;;;;;2.47;0.70;;;13.20;57.90;;;;;;5062019;28;20267;-78
2022/05/13 04:21:04;;;;;;;2.92;0.80;;;13.20;57.50;;;;;;5077441;28;20033;-78
2022/05/13 04:23:32;;;;;;;5.18;1.15;;;13.20;58.00;;;;;;5059611;28;20409;-78
2022/05/13 04:25:58;;;;;;;1.63;0.70;;;13.20;58.10;;;;;;5045788;28;20036;-79
2022/05/13 04:28:24;;;;;;;2.10;0.63;;;13.30;58.50;;;;;;5051011;28;20037;-79
2022/05/13 04:30:49;;;;;;;2.90;0.63;;;13.20;58.20;;;;;;5053948;28;20028;-78
2022/05/13 04:33:15;;;;;;;3.33;0.80;;;13.30;58.30;;;;;;5057315;28;20035;-79
2022/05/13 04:35:41;;;;;;;1.83;0.70;;;13.30;58.10;;;;;;5054783;28;20505;-78
2022/05/13 04:38:08;;;;;;;3.40;0.80;;;13.30;58.30;;;;;;5058889;28;20045;-79
2022/05/13 04:40:33;;;;;;;4.35;1.00;;;13.40;58.60;;;;;;5053534;28;20221;-78
2022/05/13 04:43:00;;;;;;;2.93;0.80;;;13.40;58.60;;;;;;5040060;28;20033;-79
2022/05/13 04:45:28;;;;;;;1.90;0.77;;;13.40;58.50;;;;;;5045685;28;20297;-79
2022/05/13 04:50:42;;;;;;;2.72;0.73;;;13.50;58.80;;;;;;5066305;28;20242;-78
2022/05/13 04:53:10;;;;;;;1.80;0.90;;;13.50;59.30;;;;;;5043359;28;20029;-78
2022/05/13 04:55:36;;;;;;;3.20;1.08;;;13.50;58.60;;;;;;5033487;28;22732;-79
2022/05/13 04:58:04;;;;;;;3.83;0.73;;;13.50;59.40;;;;;;5064171;28;20036;-78
2022/05/13 05:00:29;;;;;;;2.60;0.80;;;13.50;59.10;;;;;;5023160;28;20048;-78
2022/05/13 05:02:56;;;;;;;3.13;0.93;;;13.50;58.90;;;;;;5032023;28;20619;-77
2022/05/13 05:05:22;;;;;;;2.63;1.00;;;13.50;59.10;;;;;;5036412;28;23212;-77
2022/05/13 05:07:48;;;;;;;2.40;0.80;;;13.50;59.40;;;;;;5064676;28;20041;-78
2022/05/13 05:10:14;;;;;;;2.45;0.88;;;13.50;59.10;;;;;;5049291;28;20136;-79
2022/05/13 05:12:40;;;;;;;2.35;0.70;;;13.50;59.50;;;;;;5076059;28;20112;-79
2022/05/13 05:15:07;;;;;;;2.10;0.90;;;13.50;59.10;;;;;;5053395;28;20132;-79
2022/05/13 05:17:34;;;;;;;2.38;0.90;;;13.50;59.50;;;;;;5034895;28;20217;-78
2022/05/13 05:20:00;;;;;;;2.83;1.00;;;13.50;59.40;;;;;;5072863;28;20105;-78
2022/05/13 05:22:25;;;;;;;3.80;0.98;;;13.50;59.80;;;;;;5042960;28;20063;-79
2022/05/13 05:24:51;;;;;;;3.57;1.03;;;13.50;59.70;;;;;;5064071;28;20082;-78
2022/05/13 05:27:17;;;;;;;3.40;0.80;;;13.50;60.00;;;;;;5046609;28;20054;-79
2022/05/13 05:29:46;;;;;;;3.23;0.93;;;13.50;59.80;;;;;;5055785;28;20087;-80
2022/05/13 05:32:12;;;;;;;3.95;1.10;;;13.50;60.00;;;;;;5030254;28;20043;-81
2022/05/13 05:34:38;;;;;;;4.18;1.15;;;13.60;60.10;;;;;;5047353;28;20237;-81
2022/05/13 05:37:03;;;;;;;3.00;0.80;;;13.60;60.10;;;;;;5049110;28;20538;-81
2022/05/13 05:39:29;;;;;;;4.72;1.08;;;13.60;60.70;;;;;;5066008;28;20095;-81
2022/05/13 05:41:55;;;;;;;2.07;0.83;;;13.60;61.10;;;;;;5040034;28;20032;-81
2022/05/13 05:44:20;;;;;;;3.72;1.00;;;13.60;60.60;;;;;;5042010;28;21226;-80
2022/05/13 05:46:46;;;;;;;2.03;0.80;;;13.70;60.60;;;;;;5047589;28;20604;-80
2022/05/13 05:49:12;;;;;;;3.58;1.10;;;13.70;60.60;;;;;;5039186;28;20044;-80
2022/05/13 05:51:37;;;;;;;2.73;1.00;;;13.70;61.10;;;;;;5042226;28;20860;-82
2022/05/13 05:59:33;;;;;;;5.07;1.00;;;13.90;60.90;;;;;;5057997;28;20488;-80
2022/05/13 06:01:58;;;;;;;3.07;1.10;;;13.90;60.80;;;;;;5034762;28;20052;-81
2022/05/13 06:04:25;;;;;;;3.13;1.30;;;14.00;60.70;;;;;;5014324;28;20506;-80
2022/05/13 06:06:50;;;;;;;2.28;1.20;;;14.00;61.30;;;;;;5026633;28;20542;-80
2022/05/13 06:09:16;;;;;;;4.53;1.30;;;14.00;61.60;;;;;;5061610;28;20029;-80
2022/05/13 06:11:42;;;;;;;4.63;1.48;;;14.10;61.30;;;;;;5063620;28;20470;-79
2022/05/13 06:14:09;;;;;;;5.97;1.10;;;14.10;61.50;;;;;;5052211;28;20039;-80
2022/05/13 06:16:37;;;;;;;3.80;1.00;;;14.20;61.60;;;;;;5032358;28;20041;-81
2022/05/13 06:19:03;;;;;;;5.82;1.10;;;14.20;61.50;;;;;;5024456;28;20047;-80
2022/05/13 06:21:35;;;;;;;4.70;1.30;;;14.30;61.70;;;;;;5025830;28;20272;-80
2022/05/13 06:24:01;;;;;;;5.18;1.27;;;14.40;62.30;;;;;;5028309;28;20047;-79
2022/05/13 06:26:28;;;;;;;4.55;1.48;;;14.50;61.90;;;;;;5063199;28;20431;-79
2022/05/13 06:28:54;;;;;;;4.53;1.47;;;14.50;61.90;;;;;;5049317;28;20261;-80
2022/05/13 06:31:20;;;;;;;4.38;1.33;;;14.60;62.20;;;;;;5043299;28;20036;-79
2022/05/13 06:33:48;;;;;;;4.45;1.50;;;14.70;62.00;;;;;;5028524;28;20117;-81
2022/05/13 06:36:14;;;;;;;3.30;1.38;;;14.70;62.20;;;;;;5030276;28;20507;-80
2022/05/13 06:38:40;;;;;;;3.77;1.33;;;14.80;61.90;;;;;;5045776;28;20044;-80
2022/05/13 06:41:05;;;;;;;4.55;1.50;;;14.90;62.20;;;;;;5043461;28;20035;-80
2022/05/13 06:43:32;;;;;;;4.22;1.50;;;14.90;61.90;;;;;;5060401;28;20089;-80
2022/05/13 06:45:57;;;;;;;4.05;1.25;;;15.00;62.10;;;;;;5058834;28;20116;-80
2022/05/13 06:48:23;;;;;;;4.33;1.40;;;15.10;62.10;;;;;;5067019;28;20115;-80
2022/05/13 06:50:49;;;;;;;4.68;1.48;;;15.20;61.80;;;;;;5022145;28;20314;-81
2022/05/13 06:53:17;;;;;;;3.20;1.20;;;15.30;62.60;;;;;;5046060;28;20070;-80
2022/05/13 06:55:44;;;;;;;5.30;1.50;;;15.40;62.10;;;;;;5033529;28;20230;-79
2022/05/13 06:58:10;;;;;;;2.40;1.10;;;15.40;62.10;;;;;;5062417;28;20452;-80
2022/05/13 07:00:36;;;;;;;4.13;1.40;;;15.50;62.10;;;;;;5058966;28;20121;-80
2022/05/13 07:03:02;;;;;;;5.22;1.52;;;15.60;62.00;;;;;;5059096;28;20816;-80
2022/05/13 07:05:28;;;;;;;4.83;1.23;;;15.60;61.80;;;;;;5038163;28;20066;-80
2022/05/13 07:07:53;;;;;;;2.65;1.15;;;15.70;62.00;;;;;;5029261;28;20064;-82
2022/05/13 07:10:19;;;;;;;3.28;1.08;;;15.80;62.00;;;;;;5064410;28;20678;-80
2022/05/13 07:12:45;;;;;;;3.97;1.10;;;15.90;62.00;;;;;;5052893;28;20505;-81
2022/05/13 07:15:14;;;;;;;4.73;1.10;;;16.10;62.00;;;;;;5053143;28;20047;-80
2022/05/13 07:17:40;;;;;;;4.45;1.20;;;16.20;62.00;;;;;;5066839;28;20501;-80
2022/05/13 07:20:06;;;;;;;2.92;1.20;;;16.30;61.90;;;;;;5020731;28;20206;-80
2022/05/13 07:22:34;;;;;;;3.97;1.10;;;16.50;61.80;;;;;;5050556;28;20040;-82
2022/05/13 07:24:59;;;;;;;3.42;1.40;;;16.60;61.70;;;;;;5039387;28;20463;-80
2022/05/13 07:27:25;;;;;;;4.83;1.27;;;16.70;61.50;;;;;;5059233;28;20142;-82
2022/05/13 07:29:51;;;;;;;2.03;1.08;;;16.90;61.40;;;;;;5077957;28;20400;-80
2022/05/13 07:32:17;;;;;;;5.70;1.30;;;17.00;61.20;;;;;;5071863;28;20250;-81
2022/05/13 07:34:42;;;;;;;4.13;1.17;;;17.20;61.20;;;;;;5051729;28;20267;-79
2022/05/13 07:37:08;;;;;;;4.73;1.20;;;17.30;61.10;;;;;;5037000;28;20245;-81
2022/05/13 07:42:19;;;;;;;3.08;0.98;;;17.60;60.90;;;;;;5067040;28;20141;-80
2022/05/13 07:44:45;;;;;;;3.13;1.30;;;17.80;60.80;;;;;;5046374;28;20032;-81
2022/05/13 07:47:11;;;;;;;4.43;1.27;;;18.00;61.00;;;;;;5037497;28;20539;-81
2022/05/13 07:49:39;;;;;;;2.80;1.17;;;18.20;61.30;;;;;;5036370;28;20346;-80
2022/05/13 07:52:06;;;;;;;4.25;1.23;;;18.30;61.30;;;;;;5050540;28;20060;-80
2022/05/13 07:54:32;;;;;;;3.87;1.07;;;18.60;61.40;;;;;;5058976;28;20033;-81
2022/05/13 07:56:57;;;;;;;3.17;1.10;;;18.90;61.40;;;;;;5043908;28;20032;-80
2022/05/13 07:59:23;;;;;;;2.83;1.00;;;19.20;61.20;;;;;;5046287;28;20032;-82
2022/05/13 08:01:49;;;;;;;4.43;1.00;;;19.50;61.10;;;;;;5057791;28;20033;-81
2022/05/13 08:04:14;;;;;;;3.33;1.13;;;19.90;61.20;;;;;;5064727;28;20185;-81
2022/05/13 08:06:42;;;;;;;3.53;1.10;;;20.20;61.10;;;;;;5040253;28;20451;-80
2022/05/13 08:09:08;;;;;;;3.42;1.20;;;20.60;60.40;;;;;;5033303;28;20135;-81
2022/05/13 08:11:33;;;;;;;3.53;1.20;;;21.00;60.00;;;;;;5047530;28;20298;-80
2022/05/13 08:14:01;;;;;;;3.60;1.40;;;21.40;60.50;;;;;;5045106;28;20522;-82
2022/05/13 08:16:29;;;;;;;3.92;1.10;;;21.80;59.10;;;;;;5060836;28;20512;-80
2022/05/13 08:18:56;;;;;;;2.35;1.00;;;22.20;58.20;;;;;;5044746;28;20040;-80
2022/05/13 08:21:23;;;;;;;2.63;1.20;;;22.50;57.90;;;;;;5033687;28;20052;-81
2022/05/13 08:23:50;;;;;;;3.30;1.07;;;22.80;57.50;;;;;;5025045;28;20051;-80
2022/05/13 08:26:16;;;;;;;3.25;1.27;;;23.10;56.60;;;;;;5080617;28;20656;-83
2022/05/13 08:28:43;;;;;;;3.22;1.00;;;23.40;55.90;;;;;;5067411;28;20025;-82
2022/05/13 08:31:09;;;;;;;4.25;1.02;;;23.70;55.80;;;;;;5036844;28;20032;-80
2022/05/13 08:33:36;;;;;;;3.70;1.20;;;24.00;55.60;;;;;;5042425;28;20032;-83
2022/05/13 08:36:04;;;;;;;2.83;1.10;;;24.20;55.00;;;;;;5044425;28;20684;-80
2022/05/13 08:38:33;;;;;;;3.20;1.13;;;24.50;53.50;;;;;;5035508;28;20104;-80
2022/05/13 08:41:05;;;;;;;4.55;1.10;;;24.80;53.20;;;;;;5061149;28;20047;-81
2022/05/13 08:43:36;;;;;;;2.42;1.00;;;25.00;52.10;;;;;;5049006;28;20041;-80
2022/05/13 08:46:07;;;;;;;2.58;1.05;;;25.20;52.10;;;;;;5039540;28;20028;-82
2022/05/13 08:48:42;;;;;;;2.07;0.90;;;25.30;51.00;;;;;;5044377;28;20396;-82
2022/05/13 08:51:15;;;;;;;1.92;0.80;;;25.40;49.70;;;;;;5037141;28;20527;-81
2022/05/13 08:54:06;;;;;;;1.67;0.90;;;25.40;49.00;;;;;;5030809;28;20032;-81
2022/05/13 08:56:32;;;;;;;2.50;1.17;;;25.40;48.30;;;;;;5080380;28;20100;-82
2022/05/13 08:59:19;;;;;;;2.33;1.20;;;25.40;49.00;;;;;;5068527;28;20123;-81
2022/05/13 09:01:55;;;;;;;1.38;0.80;;;25.40;46.40;;;;;;5046746;28;20033;-81
2022/05/13 09:04:47;;;;;;;2.75;1.10;;;25.30;47.20;;;;;;5068513;28;20086;-82
2022/05/13 09:07:19;;;;;;;2.50;0.85;;;25.20;45.70;;;;;;5065954;28;20052;-82
2022/05/13 09:09:50;;;;;;;1.15;0.80;;;25.20;47.10;;;;;;5037008;28;20024;-81
2022/05/13 09:12:42;;;;;;;1.87;0.80;;;25.10;46.90;;;;;;5027694;28;20154;-83
2022/05/13 09:15:16;;;;;;;2.13;0.90;;;25.00;46.20;;;;;;5064576;28;20071;-81
2022/05/13 09:18:03;;;;;;;2.10;0.80;;;25.00;47.00;;;;;;5040864;28;20049;-81
2022/05/13 09:20:36;;;;;;;1.95;0.73;;;25.00;46.20;;;;;;5052574;28;20436;-80
2022/05/13 09:23:06;;;;;;;2.50;0.80;;;24.90;46.70;;;;;;5059134;28;20036;-81
2022/05/13 09:26:09;;;;;;;1.80;0.80;;;24.90;46.70;;;;;;5045848;28;20032;-81
2022/05/13 09:28:37;;;;;;;2.85;1.10;;;25.00;45.90;;;;;;5050366;28;20047;-82
2022/05/13 09:31:28;;;;;;;2.75;0.90;;;25.20;47.20;;;;;;5056795;28;20029;-80
2022/05/13 09:33:53;;;;;;;2.38;0.90;;;25.30;45.40;;;;;;5054806;28;20044;-81
2022/05/13 09:36:19;;;;;;;1.53;0.90;;;25.30;45.20;;;;;;5037050;28;20024;-83
2022/05/13 09:38:55;;;;;;;3.28;0.80;;;25.20;44.80;;;;;;5064494;28;20108;-81
2022/05/13 09:41:32;;;;;;;1.45;0.80;;;25.20;44.90;;;;;;5047532;28;20497;-82
2022/05/13 09:44:09;;;;;;;1.70;0.80;;;25.30;45.30;;;;;;5038333;28;20090;-81
2022/05/13 09:46:50;;;;;;;2.13;0.80;;;25.40;45.10;;;;;;5065767;28;20047;-82
2022/05/13 09:49:33;;;;;;;2.63;0.90;;;25.50;45.20;;;;;;5040038;28;20090;-83
2022/05/13 09:52:14;;;;;;;2.53;1.00;;;25.70;44.80;;;;;;5031822;28;20531;-81
2022/05/13 09:54:46;;;;;;;3.35;0.90;;;25.60;43.40;;;;;;5060405;28;20067;-81
2022/05/13 09:57:34;;;;;;;0.90;0.80;;;25.50;43.40;;;;;;5044954;28;20098;-80
2022/05/13 10:00:11;;;;;;;1.38;0.80;;;25.30;42.80;;;;;;5071992;28;20141;-81
2022/05/13 10:02:43;;;;;;;1.45;0.80;;;25.10;42.70;;;;;;5047057;28;20043;-82
2022/05/13 10:05:19;;;;;;;2.45;0.90;;;24.90;42.60;;;;;;5056333;28;20138;-81
2022/05/13 10:08:09;;;;;;;3.15;0.80;;;24.80;42.90;;;;;;5034559;28;20071;-81
2022/05/13 10:13:59;;;;;;;1.95;0.80;;;24.60;42.70;;;;;;5019443;28;20045;-80
2022/05/13 10:16:44;;;;;;;2.30;0.90;;;24.40;42.20;;;;;;5041632;28;20052;-81
2022/05/13 10:19:22;;;;;;;3.85;0.88;;;24.20;42.50;;;;;;5063157;28;20208;-81
2022/05/13 10:21:53;;;;;;;1.75;0.85;;;24.20;43.10;;;;;;5058573;28;20024;-81
2022/05/13 10:24:45;;;;;;;1.50;0.80;;;24.20;43.70;;;;;;5061309;28;20050;-84
2022/05/13 10:27:36;;;;;;;1.75;0.80;;;24.10;42.70;;;;;;5044255;28;20040;-81
2022/05/13 10:30:15;;;;;;;1.90;0.80;;;24.00;42.80;;;;;;5042751;28;20036;-82
2022/05/13 10:32:48;;;;;;;1.42;0.82;;;24.00;42.70;;;;;;5047318;28;20111;-81
2022/05/13 10:35:19;;;;;;;2.42;1.10;;;24.00;43.40;;;;;;5058641;28;20024;-82
2022/05/13 10:38:09;;;;;;;2.43;1.00;;;24.00;43.50;;;;;;5029839;28;20028;-81
2022/05/13 10:40:39;;;;;;;1.85;0.90;;;24.00;43.10;;;;;;5064308;28;20044;-80
2022/05/13 10:43:16;;;;;;;2.13;0.90;;;23.90;43.10;;;;;;5027821;28;20036;-82
2022/05/13 10:45:44;;;;;;;2.28;0.70;;;23.80;42.70;;;;;;5053002;28;20070;-82
2022/05/13 10:48:27;;;;;;;2.03;0.90;;;23.70;43.00;;;;;;5055053;28;20552;-80
2022/05/13 10:51:16;;;;;;;2.63;0.90;;;23.60;42.60;;;;;;5060497;28;20113;-81
2022/05/13 10:54:00;;;;;;;2.10;0.80;;;23.60;42.80;;;;;;5036867;28;20094;-81
2022/05/13 10:56:50;;;;;;;2.42;0.90;;;23.60;43.20;;;;;;5066162;28;20033;-82
2022/05/13 10:59:25;;;;;;;0.90;0.80;;;23.50;43.50;;;;;;5064517;28;20056;-81
2022/05/13 11:02:06;;;;;;;1.27;1.00;;;23.50;43.30;;;;;;5062032;28;20118;-81
2022/05/13 11:04:34;;;;;;;2.00;0.80;;;23.50;43.30;;;;;;5057857;28;20092;-81
2022/05/13 11:07:24;;;;;;;3.17;0.80;;;23.50;43.80;;;;;;5042667;28;20213;-81
2022/05/13 11:09:58;;;;;;;1.67;1.00;;;23.60;44.00;;;;;;5030550;28;20060;-80
2022/05/13 11:12:33;;;;;;;2.03;0.95;;;23.70;44.60;;;;;;5063025;28;20502;-83
2022/05/13 11:15:37;;;;;;;1.92;1.00;;;23.90;44.10;;;;;;5024955;28;20456;-80
2022/05/13 11:18:10;;;;;;;1.70;1.00;;;24.00;43.60;;;;;;5060860;28;20087;-82
2022/05/13 11:20:59;;;;;;;2.53;1.00;;;24.20;43.60;;;;;;5039372;28;20100;-81
2022/05/13 11:27:06;;;;;;;1.60;0.98;;;24.30;42.80;;;;;;5062199;28;20127;-81
2022/05/13 11:29:50;;;;;;;1.70;0.95;;;24.30;42.70;;;;;;5015756;28;20440;-81
2022/05/13 11:32:38;;;;;;;2.33;0.80;;;24.40;43.30;;;;;;5079350;28;20352;-83
2022/05/13 11:35:16;;;;;;;3.25;1.10;;;24.50;43.30;;;;;;5024447;28;20039;-81
2022/05/13 11:37:45;;;;;;;1.33;1.10;;;24.70;43.80;;;;;;5043662;28;20129;-81
2022/05/13 11:40:49;;;;;;;2.60;0.90;;;24.80;43.80;;;;;;5052259;28;20052;-80
2022/05/13 11:43:43;;;;;;;3.25;1.00;;;25.00;43.40;;;;;;5036785;28;20117;-81
2022/05/13 11:46:26;;;;;;;2.20;1.10;;;25.00;42.00;;;;;;5017408;28;20578;-81
2022/05/13 11:49:01;;;;;;;2.38;0.73;;;25.00;41.50;;;;;;5045123;28;20076;-81
2022/05/13 11:51:30;;;;;;;2.20;0.90;;;25.00;41.80;;;;;;5037884;28;20488;-81
2022/05/13 11:54:20;;;;;;;2.60;1.00;;;24.90;42.00;;;;;;5037483;28;20311;-80
2022/05/13 11:56:49;;;;;;;1.73;0.90;;;24.90;41.60;;;;;;5042968;28;20320;-82
2022/05/13 11:59:27;;;;;;;2.50;0.90;;;24.80;42.10;;;;;;5043014;28;20424;-82
2022/05/13 12:02:34;;;;;;;1.52;0.70;;;24.80;41.50;;;;;;5024994;28;20102;-81
2022/05/13 12:05:04;;;;;;;1.75;0.95;;;24.80;41.70;;;;;;5061256;28;20075;-80
2022/05/13 12:07:34;;;;;;;2.95;0.90;;;24.70;41.80;;;;;;5029905;28;20254;-81
2022/05/13 12:10:05;;;;;;;3.05;0.85;;;24.70;41.90;;;;;;5067728;28;20413;-80
2022/05/13 12:12:39;;;;;;;1.90;0.90;;;24.70;41.60;;;;;;5075365;28;20109;-81
2022/05/13 12:15:13;;;;;;;1.40;0.90;;;24.60;41.50;;;;;;5039667;28;20044;-80
2022/05/13 12:18:10;;;;;;;2.83;0.88;;;24.60;41.90;;;;;;5059984;28;20044;-81
2022/05/13 12:20:59;;;;;;;2.05;0.77;;;24.60;41.20;;;;;;5051423;28;20470;-80
2022/05/13 12:23:39;;;;;;;1.83;1.10;;;24.60;41.60;;;;;;5007253;28;20048;-81
2022/05/13 12:26:09;;;;;;;1.73;0.90;;;24.60;41.70;;;;;;5053066;28;20036;-81
2022/05/13 12:29:00;;;;;;;2.63;1.00;;;24.60;41.80;;;;;;5042276;28;20417;-80
2022/05/13 12:31:55;;;;;;;3.42;1.00;;;24.60;41.60;;;;;;5023228;28;20064;-80
2022/05/13 12:40:28;;;;;;;1.93;0.90;;;24.60;41.80;;;;;;5059718;28;20078;-81
2022/05/13 12:42:54;;;;;;;1.90;1.00;;;24.70;41.80;;;;;;5039141;28;20396;-84
2022/05/13 12:45:22;;;;;;;2.45;1.00;;;24.80;42.20;;;;;;5074214;28;20035;-81
2022/05/13 12:47:58;;;;;;;2.07;0.90;;;25.00;42.20;;;;;;5027293;28;20120;-80
2022/05/13 12:50:49;;;;;;;1.77;0.90;;;25.20;42.40;;;;;;5035032;28;20032;-81
2022/05/13 12:53:30;;;;;;;1.50;0.80;;;25.40;42.10;;;;;;5064535;28;20028;-81
2022/05/13 12:56:20;;;;;;;1.70;0.90;;;25.70;41.20;;;;;;5048824;28;20488;-81
2022/05/13 12:58:58;;;;;;;1.63;1.00;;;25.80;41.40;;;;;;5042049;28;20288;-81
2022/05/13 13:01:26;;;;;;;2.07;1.00;;;26.00;40.90;;;;;;5043099;28;20071;-82
2022/05/13 13:03:52;;;;;;;3.70;0.93;;;26.10;41.20;;;;;;5022802;28;20029;-81
2022/05/13 13:06:20;;;;;;;2.75;1.00;;;26.20;41.10;;;;;;5045857;28;20093;-80
2022/05/13 13:08:49;;;;;;;2.17;1.08;;;26.20;40.40;;;;;;5045686;28;20184;-80
2022/05/13 13:11:51;;;;;;;2.83;0.93;;;26.20;39.90;;;;;;5048198;28;20062;-80
2022/05/13 13:14:46;;;;;;;1.20;0.73;;;26.20;40.00;;;;;;5043650;28;20029;-82
2022/05/13 13:17:21;;;;;;;4.65;1.13;;;26.30;40.10;;;;;;5036932;28;20109;-81
2022/05/13 13:19:48;;;;;;;1.65;0.80;;;26.40;40.20;;;;;;5047600;28;20043;-81
2022/05/13 13:22:19;;;;;;;2.03;1.00;;;26.40;40.20;;;;;;5060827;28;20094;-80
2022/05/13 13:24:45;;;;;;;1.58;0.90;;;26.40;39.90;;;;;;5045979;28;20059;-82
2022/05/13 13:27:18;;;;;;;2.23;1.20;;;26.50;40.10;;;;;;5037801;28;20056;-80
2022/05/13 13:29:46;;;;;;;2.40;1.00;;;26.50;39.80;;;;;;5058008;28;20043;-81
2022/05/13 13:32:15;;;;;;;2.08;0.80;;;26.50;39.30;;;;;;5060984;28;20057;-84
2022/05/13 13:34:51;;;;;;;1.73;0.95;;;26.50;39.50;;;;;;5027399;28;20775;-81
2022/05/13 13:37:20;;;;;;;1.85;0.90;;;26.50;39.40;;;;;;5040147;28;20025;-83
2022/05/13 13:39:46;;;;;;;1.80;1.10;;;26.60;39.70;;;;;;5052318;28;20035;-80
2022/05/13 13:42:15;;;;;;;3.33;0.98;;;26.60;40.00;;;;;;5052075;28;20033;-81
2022/05/13 13:44:43;;;;;;;2.55;0.85;;;26.70;40.00;;;;;;5030482;28;20181;-82